sensor_id;sensor_type;location;lat;lon;timestamp;pressure;altitude;pressure_sealevel;temperature;humidity
22964;BME280;11648;49.306;6.934;2022-11-20T00:01:06;97939.94;;;11.77;71.47
22964;BME280;11648;49.306;6.934;2022-11-20T00:03:33;97935.59;;;11.75;71.39
22964;BME280;11648;49.306;6.934;2022-11-20T00:06:04;97937.91;;;11.88;71.35
22964;BME280;11648;49.306;6.934;2022-11-20T00:08:32;97933.00;;;11.73;71.54
22964;BME280;11648;49.306;6.934;2022-11-20T00:11:06;97931.16;;;11.77;71.65
22964;BME280;11648;49.306;6.934;2022-11-20T00:13:41;97928.19;;;11.91;71.76
22964;BME280;11648;49.306;6.934;2022-11-20T00:16:10;97921.91;;;11.96;71.22
22964;BME280;11648;49.306;6.934;2022-11-20T00:18:37;97936.03;;;11.94;71.32
22964;BME280;11648;49.306;6.934;2022-11-20T00:23:39;97932.16;;;11.71;72.02
22964;BME280;11648;49.306;6.934;2022-11-20T00:26:08;97936.59;;;11.68;71.99
22964;BME280;11648;49.306;6.934;2022-11-20T00:28:35;97931.00;;;11.83;71.57
22964;BME280;11648;49.306;6.934;2022-11-20T00:31:10;97924.59;;;11.93;71.32
22964;BME280;11648;49.306;6.934;2022-11-20T00:33:38;97935.78;;;11.66;71.98
22964;BME280;11648;49.306;6.934;2022-11-20T00:36:07;97929.22;;;11.85;71.51
22964;BME280;11648;49.306;6.934;2022-11-20T00:38:34;97931.59;;;11.57;72.31
22964;BME280;11648;49.306;6.934;2022-11-20T00:41:05;97934.41;;;11.50;72.66
22964;BME280;11648;49.306;6.934;2022-11-20T00:43:32;97934.41;;;11.50;72.59
22964;BME280;11648;49.306;6.934;2022-11-20T00:46:09;97929.81;;;11.59;72.26
22964;BME280;11648;49.306;6.934;2022-11-20T00:48:36;97929.31;;;11.80;71.83
22964;BME280;11648;49.306;6.934;2022-11-20T00:51:03;97937.78;;;11.56;72.58
22964;BME280;11648;49.306;6.934;2022-11-20T00:53:30;97935.88;;;11.61;72.40
22964;BME280;11648;49.306;6.934;2022-11-20T00:56:05;97936.38;;;11.80;71.97
22964;BME280;11648;49.306;6.934;2022-11-20T00:58:35;97940.44;;;11.55;72.43
22964;BME280;11648;49.306;6.934;2022-11-20T01:03:32;97947.06;;;11.74;71.78
22964;BME280;11648;49.306;6.934;2022-11-20T01:06:04;97943.59;;;11.70;71.83
22964;BME280;11648;49.306;6.934;2022-11-20T01:08:33;97943.88;;;11.58;72.15
22964;BME280;11648;49.306;6.934;2022-11-20T01:11:03;97943.31;;;11.46;72.45
22964;BME280;11648;49.306;6.934;2022-11-20T01:13:31;97939.31;;;11.66;71.88
22964;BME280;11648;49.306;6.934;2022-11-20T01:16:21;97943.78;;;11.63;72.22
22964;BME280;11648;49.306;6.934;2022-11-20T01:18:50;97945.44;;;11.67;71.78
22964;BME280;11648;49.306;6.934;2022-11-20T01:21:19;97942.72;;;11.71;71.79
22964;BME280;11648;49.306;6.934;2022-11-20T01:23:47;97941.00;;;11.69;71.71
22964;BME280;11648;49.306;6.934;2022-11-20T01:26:34;97942.94;;;11.98;70.83
22964;BME280;11648;49.306;6.934;2022-11-20T01:29:03;97933.34;;;11.95;70.84
22964;BME280;11648;49.306;6.934;2022-11-20T01:31:35;97937.91;;;11.88;70.96
22964;BME280;11648;49.306;6.934;2022-11-20T01:34:05;97934.69;;;11.77;71.19
22964;BME280;11648;49.306;6.934;2022-11-20T01:36:33;97928.94;;;11.96;70.82
22964;BME280;11648;49.306;6.934;2022-11-20T01:39:04;97947.06;;;11.74;70.87
22964;BME280;11648;49.306;6.934;2022-11-20T01:41:32;97949.69;;;11.74;70.90
22964;BME280;11648;49.306;6.934;2022-11-20T01:44:21;97944.75;;;11.59;71.33
22964;BME280;11648;49.306;6.934;2022-11-20T01:46:56;97927.66;;;11.76;71.17
22964;BME280;11648;49.306;6.934;2022-11-20T01:52:01;97936.25;;;11.84;71.01
22964;BME280;11648;49.306;6.934;2022-11-20T01:54:38;97939.78;;;11.83;70.66
22964;BME280;11648;49.306;6.934;2022-11-20T01:57:06;97937.13;;;11.85;70.83
22964;BME280;11648;49.306;6.934;2022-11-20T01:59:35;97932.16;;;11.71;70.99
22964;BME280;11648;49.306;6.934;2022-11-20T02:02:03;97927.78;;;11.70;71.25
22964;BME280;11648;49.306;6.934;2022-11-20T02:04:29;97928.91;;;11.97;70.67
22964;BME280;11648;49.306;6.934;2022-11-20T02:06:59;97933.97;;;11.68;71.10
22964;BME280;11648;49.306;6.934;2022-11-20T02:09:27;97936.66;;;11.66;71.12
22964;BME280;11648;49.306;6.934;2022-11-20T02:11:55;97931.44;;;12.02;70.15
22964;BME280;11648;49.306;6.934;2022-11-20T02:14:22;97930.13;;;11.84;70.55
22964;BME280;11648;49.306;6.934;2022-11-20T02:16:50;97924.13;;;11.77;70.66
22964;BME280;11648;49.306;6.934;2022-11-20T02:19:26;97935.41;;;11.82;70.72
22964;BME280;11648;49.306;6.934;2022-11-20T02:22:14;97928.44;;;11.80;70.58
22964;BME280;11648;49.306;6.934;2022-11-20T02:24:44;97926.63;;;11.82;70.63
22964;BME280;11648;49.306;6.934;2022-11-20T02:27:14;97921.31;;;11.85;70.68
22964;BME280;11648;49.306;6.934;2022-11-20T02:29:49;97931.97;;;11.80;71.01
22964;BME280;11648;49.306;6.934;2022-11-20T02:32:24;97915.16;;;11.84;70.72
22964;BME280;11648;49.306;6.934;2022-11-20T02:34:51;97925.22;;;11.67;71.17
22964;BME280;11648;49.306;6.934;2022-11-20T02:37:19;97927.41;;;11.49;71.97
22964;BME280;11648;49.306;6.934;2022-11-20T02:39:47;97926.50;;;11.50;71.84
22964;BME280;11648;49.306;6.934;2022-11-20T02:42:15;97928.31;;;11.48;71.89
22964;BME280;11648;49.306;6.934;2022-11-20T02:44:42;97920.72;;;11.34;71.99
22964;BME280;11648;49.306;6.934;2022-11-20T02:47:09;97925.34;;;11.61;71.57
22964;BME280;11648;49.306;6.934;2022-11-20T02:49:35;97913.91;;;11.62;71.29
22964;BME280;11648;49.306;6.934;2022-11-20T02:52:02;97917.44;;;11.61;71.28
22964;BME280;11648;49.306;6.934;2022-11-20T02:54:29;97903.84;;;11.79;70.63
22964;BME280;11648;49.306;6.934;2022-11-20T02:56:56;97907.34;;;11.80;70.30
22964;BME280;11648;49.306;6.934;2022-11-20T02:59:22;97909.91;;;11.83;70.19
22964;BME280;11648;49.306;6.934;2022-11-20T03:01:49;97904.13;;;11.67;70.40
22964;BME280;11648;49.306;6.934;2022-11-20T03:04:16;97896.41;;;11.60;70.75
22964;BME280;11648;49.306;6.934;2022-11-20T03:06:43;97901.84;;;11.52;71.07
22964;BME280;11648;49.306;6.934;2022-11-20T03:09:10;97908.81;;;11.55;71.07
22964;BME280;11648;49.306;6.934;2022-11-20T03:11:36;97897.31;;;11.57;71.11
22964;BME280;11648;49.306;6.934;2022-11-20T03:14:04;97898.00;;;11.67;70.62
22964;BME280;11648;49.306;6.934;2022-11-20T03:16:31;97892.09;;;11.56;70.86
22964;BME280;11648;49.306;6.934;2022-11-20T03:18:59;97898.25;;;11.56;70.99
22964;BME280;11648;49.306;6.934;2022-11-20T03:21:26;97893.22;;;11.46;71.11
22964;BME280;11648;49.306;6.934;2022-11-20T03:23:54;97894.19;;;11.78;70.69
22964;BME280;11648;49.306;6.934;2022-11-20T03:26:23;97897.25;;;11.60;71.26
22964;BME280;11648;49.306;6.934;2022-11-20T03:28:56;97886.84;;;11.91;70.55
22964;BME280;11648;49.306;6.934;2022-11-20T03:31:28;97896.66;;;11.86;70.60
22964;BME280;11648;49.306;6.934;2022-11-20T03:33:56;97893.13;;;11.85;70.68
22964;BME280;11648;49.306;6.934;2022-11-20T03:36:24;97887.44;;;11.67;71.26
22964;BME280;11648;49.306;6.934;2022-11-20T03:38:53;97895.59;;;11.93;70.84
22964;BME280;11648;49.306;6.934;2022-11-20T03:41:22;97884.66;;;12.08;70.25
22964;BME280;11648;49.306;6.934;2022-11-20T03:43:51;97890.81;;;12.07;69.95
22964;BME280;11648;49.306;6.934;2022-11-20T03:46:18;97886.28;;;12.14;69.86
22964;BME280;11648;49.306;6.934;2022-11-20T03:48:45;97889.22;;;12.02;70.61
22964;BME280;11648;49.306;6.934;2022-11-20T03:51:28;97876.50;;;12.17;69.75
22964;BME280;11648;49.306;6.934;2022-11-20T03:53:57;97892.19;;;12.22;69.90
22964;BME280;11648;49.306;6.934;2022-11-20T03:56:26;97874.66;;;12.21;70.22
22964;BME280;11648;49.306;6.934;2022-11-20T03:58:53;97880.69;;;11.92;70.76
22964;BME280;11648;49.306;6.934;2022-11-20T04:01:22;97881.19;;;12.06;70.61
22964;BME280;11648;49.306;6.934;2022-11-20T04:03:52;97875.06;;;12.06;70.58
22964;BME280;11648;49.306;6.934;2022-11-20T04:06:20;97890.03;;;12.04;70.65
22964;BME280;11648;49.306;6.934;2022-11-20T04:08:48;97881.84;;;12.14;70.49
22964;BME280;11648;49.306;6.934;2022-11-20T04:11:22;97893.25;;;12.15;70.12
22964;BME280;11648;49.306;6.934;2022-11-20T04:13:51;97887.91;;;12.18;70.49
22964;BME280;11648;49.306;6.934;2022-11-20T04:16:19;97889.03;;;12.09;71.13
22964;BME280;11648;49.306;6.934;2022-11-20T04:18:46;97891.28;;;12.23;71.33
22964;BME280;11648;49.306;6.934;2022-11-20T04:21:12;97884.19;;;12.25;71.34
22964;BME280;11648;49.306;6.934;2022-11-20T04:23:39;97886.63;;;12.32;71.13
22964;BME280;11648;49.306;6.934;2022-11-20T04:26:11;97885.81;;;12.30;71.04
22964;BME280;11648;49.306;6.934;2022-11-20T04:28:38;97884.91;;;12.31;71.07
22964;BME280;11648;49.306;6.934;2022-11-20T04:31:07;97885.03;;;12.27;71.18
22964;BME280;11648;49.306;6.934;2022-11-20T04:33:35;97885.34;;;12.15;71.33
22964;BME280;11648;49.306;6.934;2022-11-20T04:36:04;97886.31;;;12.11;71.36
22964;BME280;11648;49.306;6.934;2022-11-20T04:38:31;97887.00;;;12.19;71.18
22964;BME280;11648;49.306;6.934;2022-11-20T04:41:04;97885.06;;;12.25;70.91
22964;BME280;11648;49.306;6.934;2022-11-20T04:43:32;97889.31;;;12.31;70.87
22964;BME280;11648;49.306;6.934;2022-11-20T04:46:00;97885.84;;;12.29;71.05
22964;BME280;11648;49.306;6.934;2022-11-20T04:48:28;97886.00;;;12.23;71.51
22964;BME280;11648;49.306;6.934;2022-11-20T04:50:55;97885.13;;;12.24;71.25
22964;BME280;11648;49.306;6.934;2022-11-20T04:53:23;97890.84;;;12.39;71.11
22964;BME280;11648;49.306;6.934;2022-11-20T04:55:50;97889.16;;;12.37;70.98
22964;BME280;11648;49.306;6.934;2022-11-20T04:58:17;97886.47;;;12.38;70.94
22964;BME280;11648;49.306;6.934;2022-11-20T05:00:43;97888.06;;;12.12;71.62
22964;BME280;11648;49.306;6.934;2022-11-20T05:03:10;97885.22;;;12.19;71.46
22964;BME280;11648;49.306;6.934;2022-11-20T05:05:37;97893.66;;;12.33;71.06
22964;BME280;11648;49.306;6.934;2022-11-20T05:08:04;97891.13;;;12.29;71.44
22964;BME280;11648;49.306;6.934;2022-11-20T05:10:30;97889.63;;;12.19;71.68
22964;BME280;11648;49.306;6.934;2022-11-20T05:12:57;97880.56;;;12.29;71.48
22964;BME280;11648;49.306;6.934;2022-11-20T05:15:24;97883.16;;;12.32;71.18
22964;BME280;11648;49.306;6.934;2022-11-20T05:17:52;97883.75;;;12.09;72.05
22964;BME280;11648;49.306;6.934;2022-11-20T05:20:19;97880.75;;;12.21;71.89
22964;BME280;11648;49.306;6.934;2022-11-20T05:22:46;97883.47;;;12.20;72.03
22964;BME280;11648;49.306;6.934;2022-11-20T05:25:13;97878.84;;;12.28;72.12
22964;BME280;11648;49.306;6.934;2022-11-20T05:27:39;97885.00;;;12.28;71.61
22964;BME280;11648;49.306;6.934;2022-11-20T05:30:07;97890.09;;;12.34;71.85
22964;BME280;11648;49.306;6.934;2022-11-20T05:32:34;97892.53;;;12.42;71.59
22964;BME280;11648;49.306;6.934;2022-11-20T05:35:00;97888.28;;;12.36;71.50
22964;BME280;11648;49.306;6.934;2022-11-20T05:37:27;97885.69;;;12.35;71.50
22964;BME280;11648;49.306;6.934;2022-11-20T05:39:54;97883.97;;;12.32;71.61
22964;BME280;11648;49.306;6.934;2022-11-20T05:42:21;97889.63;;;12.19;72.23
22964;BME280;11648;49.306;6.934;2022-11-20T05:45:01;97891.63;;;12.43;71.75
22964;BME280;11648;49.306;6.934;2022-11-20T05:47:31;97890.19;;;12.31;71.54
22964;BME280;11648;49.306;6.934;2022-11-20T05:49:58;97891.63;;;12.43;71.57
22964;BME280;11648;49.306;6.934;2022-11-20T05:52:29;97888.81;;;12.49;71.33
22964;BME280;11648;49.306;6.934;2022-11-20T05:54:57;97895.13;;;12.44;71.58
22964;BME280;11648;49.306;6.934;2022-11-20T05:57:23;97882.78;;;12.44;71.57
22964;BME280;11648;49.306;6.934;2022-11-20T05:59:50;97894.91;;;12.51;71.15
22964;BME280;11648;49.306;6.934;2022-11-20T06:02:17;97888.25;;;12.38;71.47
22964;BME280;11648;49.306;6.934;2022-11-20T06:04:44;97895.88;;;12.49;71.24
22964;BME280;11648;49.306;6.934;2022-11-20T06:07:10;97887.34;;;12.39;71.36
22964;BME280;11648;49.306;6.934;2022-11-20T06:09:37;97886.22;;;12.48;71.35
22964;BME280;11648;49.306;6.934;2022-11-20T06:12:04;97883.38;;;12.55;70.77
22964;BME280;11648;49.306;6.934;2022-11-20T06:14:31;97891.25;;;12.57;70.72
22964;BME280;11648;49.306;6.934;2022-11-20T06:16:58;97899.97;;;12.59;70.85
22964;BME280;11648;49.306;6.934;2022-11-20T06:19:25;97893.94;;;12.54;70.91
22964;BME280;11648;49.306;6.934;2022-11-20T06:21:52;97894.63;;;12.62;71.16
22964;BME280;11648;49.306;6.934;2022-11-20T06:24:19;97898.91;;;12.66;70.80
22964;BME280;11648;49.306;6.934;2022-11-20T06:26:45;97896.47;;;12.58;70.98
22964;BME280;11648;49.306;6.934;2022-11-20T06:29:12;97896.25;;;12.66;70.69
22964;BME280;11648;49.306;6.934;2022-11-20T06:31:39;97900.69;;;12.65;70.33
22964;BME280;11648;49.306;6.934;2022-11-20T06:34:06;97902.50;;;12.63;70.62
22964;BME280;11648;49.306;6.934;2022-11-20T06:36:33;97892.91;;;12.61;70.33
22964;BME280;11648;49.306;6.934;2022-11-20T06:39:00;97901.34;;;12.43;70.83
22964;BME280;11648;49.306;6.934;2022-11-20T06:41:27;97892.56;;;12.41;70.84
22964;BME280;11648;49.306;6.934;2022-11-20T06:43:54;97896.06;;;12.41;71.09
22964;BME280;11648;49.306;6.934;2022-11-20T06:46:21;97898.81;;;12.38;70.76
22964;BME280;11648;49.306;6.934;2022-11-20T06:48:49;97903.22;;;12.37;70.80
22964;BME280;11648;49.306;6.934;2022-11-20T06:51:16;97907.13;;;12.23;71.01
22964;BME280;11648;49.306;6.934;2022-11-20T06:53:43;97908.59;;;12.33;70.45
22964;BME280;11648;49.306;6.934;2022-11-20T06:56:10;97906.06;;;12.30;71.11
22964;BME280;11648;49.306;6.934;2022-11-20T06:58:36;97901.63;;;12.32;70.81
22964;BME280;11648;49.306;6.934;2022-11-20T07:01:12;97904.97;;;12.37;70.75
22964;BME280;11648;49.306;6.934;2022-11-20T07:03:39;97919.16;;;12.33;71.08
22964;BME280;11648;49.306;6.934;2022-11-20T07:06:07;97909.31;;;12.39;70.67
22964;BME280;11648;49.306;6.934;2022-11-20T07:08:35;97921.66;;;12.39;70.53
22964;BME280;11648;49.306;6.934;2022-11-20T07:11:05;97920.72;;;12.42;70.79
22964;BME280;11648;49.306;6.934;2022-11-20T07:13:32;97923.00;;;12.54;70.46
22964;BME280;11648;49.306;6.934;2022-11-20T07:16:05;97926.41;;;12.57;70.29
22964;BME280;11648;49.306;6.934;2022-11-20T07:18:32;97936.94;;;12.59;70.08
22964;BME280;11648;49.306;6.934;2022-11-20T07:21:03;97936.38;;;12.48;70.46
22964;BME280;11648;49.306;6.934;2022-11-20T07:23:30;97932.00;;;12.47;70.06
22964;BME280;11648;49.306;6.934;2022-11-20T07:25:57;97938.91;;;12.51;70.25
22964;BME280;11648;49.306;6.934;2022-11-20T07:28:24;97934.91;;;12.36;70.22
22964;BME280;11648;49.306;6.934;2022-11-20T07:30:52;97938.31;;;12.41;70.46
22964;BME280;11648;49.306;6.934;2022-11-20T07:33:20;97945.06;;;12.51;70.37
22964;BME280;11648;49.306;6.934;2022-11-20T07:35:46;97941.47;;;12.54;70.34
22964;BME280;11648;49.306;6.934;2022-11-20T07:38:13;97943.09;;;12.59;70.43
22964;BME280;11648;49.306;6.934;2022-11-20T07:40:40;97944.09;;;12.55;70.70
22964;BME280;11648;49.306;6.934;2022-11-20T07:43:07;97950.31;;;12.53;70.17
22964;BME280;11648;49.306;6.934;2022-11-20T07:45:33;97958.34;;;12.50;70.32
22964;BME280;11648;49.306;6.934;2022-11-20T07:48:00;97955.91;;;12.42;70.49
22964;BME280;11648;49.306;6.934;2022-11-20T07:50:27;97967.19;;;12.47;69.91
22964;BME280;11648;49.306;6.934;2022-11-20T07:53:01;97976.66;;;12.54;69.97
22964;BME280;11648;49.306;6.934;2022-11-20T07:55:27;97966.09;;;12.56;70.03
22964;BME280;11648;49.306;6.934;2022-11-20T07:57:55;97968.44;;;12.66;69.53
22964;BME280;11648;49.306;6.934;2022-11-20T08:00:23;97975.41;;;12.69;69.61
22964;BME280;11648;49.306;6.934;2022-11-20T08:02:50;97970.13;;;12.69;69.78
22964;BME280;11648;49.306;6.934;2022-11-20T08:05:16;97979.16;;;12.60;69.70
22964;BME280;11648;49.306;6.934;2022-11-20T08:07:43;97982.59;;;12.64;70.09
22964;BME280;11648;49.306;6.934;2022-11-20T08:10:13;97981.91;;;12.56;69.77
22964;BME280;11648;49.306;6.934;2022-11-20T08:12:47;97979.97;;;12.64;69.46
22964;BME280;11648;49.306;6.934;2022-11-20T08:15:33;97989.78;;;12.57;69.47
22964;BME280;11648;49.306;6.934;2022-11-20T08:18:08;97985.88;;;12.72;69.40
22964;BME280;11648;49.306;6.934;2022-11-20T08:20:57;97988.75;;;12.64;69.10
22964;BME280;11648;49.306;6.934;2022-11-20T08:23:24;97993.28;;;12.58;69.05
22964;BME280;11648;49.306;6.934;2022-11-20T08:25:50;98000.31;;;12.59;69.44
22964;BME280;11648;49.306;6.934;2022-11-20T08:28:17;97995.94;;;12.58;69.40
22964;BME280;11648;49.306;6.934;2022-11-20T08:30:49;97996.59;;;12.66;68.97
22964;BME280;11648;49.306;6.934;2022-11-20T08:33:17;97999.03;;;12.75;69.09
22964;BME280;11648;49.306;6.934;2022-11-20T08:35:44;98000.13;;;12.66;68.76
22964;BME280;11648;49.306;6.934;2022-11-20T08:38:11;97996.69;;;12.63;68.87
22964;BME280;11648;49.306;6.934;2022-11-20T08:40:37;98004.50;;;12.67;68.78
22964;BME280;11648;49.306;6.934;2022-11-20T08:43:04;97999.00;;;12.43;69.27
22964;BME280;11648;49.306;6.934;2022-11-20T08:45:31;98002.59;;;12.72;68.50
22964;BME280;11648;49.306;6.934;2022-11-20T08:48:03;98004.84;;;12.86;67.97
22964;BME280;11648;49.306;6.934;2022-11-20T08:50:30;98006.28;;;12.98;67.50
22964;BME280;11648;49.306;6.934;2022-11-20T08:53:04;98005.09;;;13.11;67.07
22964;BME280;11648;49.306;6.934;2022-11-20T08:55:31;98006.81;;;13.12;66.78
22964;BME280;11648;49.306;6.934;2022-11-20T08:57:57;98009.56;;;13.07;67.08
22964;BME280;11648;49.306;6.934;2022-11-20T09:00:24;98010.66;;;13.00;67.39
22964;BME280;11648;49.306;6.934;2022-11-20T09:02:51;98011.97;;;12.84;67.10
22964;BME280;11648;49.306;6.934;2022-11-20T09:05:18;98024.38;;;12.80;66.76
22964;BME280;11648;49.306;6.934;2022-11-20T09:07:45;98023.31;;;12.87;66.75
22964;BME280;11648;49.306;6.934;2022-11-20T09:10:12;98017.06;;;12.90;66.69
22964;BME280;11648;49.306;6.934;2022-11-20T09:12:54;98029.69;;;12.79;66.80
22964;BME280;11648;49.306;6.934;2022-11-20T09:15:22;98014.72;;;12.79;66.81
22964;BME280;11648;49.306;6.934;2022-11-20T09:17:56;98013.81;;;12.80;66.16
22964;BME280;11648;49.306;6.934;2022-11-20T09:20:25;98016.28;;;12.86;66.07
22964;BME280;11648;49.306;6.934;2022-11-20T09:22:52;98023.31;;;12.87;66.23
22964;BME280;11648;49.306;6.934;2022-11-20T09:25:18;98031.00;;;12.97;66.31
22964;BME280;11648;49.306;6.934;2022-11-20T09:27:45;98025.16;;;12.85;66.37
22964;BME280;11648;49.306;6.934;2022-11-20T09:30:14;98023.00;;;13.00;66.03
22964;BME280;11648;49.306;6.934;2022-11-20T09:32:42;98029.59;;;13.16;65.63
22964;BME280;11648;49.306;6.934;2022-11-20T09:35:09;98026.84;;;12.86;66.00
22964;BME280;11648;49.306;6.934;2022-11-20T09:37:37;98025.09;;;12.87;65.97
22964;BME280;11648;49.306;6.934;2022-11-20T09:40:04;98036.03;;;12.73;65.88
22964;BME280;11648;49.306;6.934;2022-11-20T09:45:14;98028.59;;;12.87;65.29
22964;BME280;11648;49.306;6.934;2022-11-20T09:48:17;98025.06;;;12.88;65.17
22964;BME280;11648;49.306;6.934;2022-11-20T09:50:49;98012.72;;;12.89;64.74
22964;BME280;11648;49.306;6.934;2022-11-20T09:55:54;98020.78;;;13.17;63.28
22964;BME280;11648;49.306;6.934;2022-11-20T09:58:28;98013.97;;;13.39;63.10
22964;BME280;11648;49.306;6.934;2022-11-20T10:01:03;98018.06;;;13.49;62.06
22964;BME280;11648;49.306;6.934;2022-11-20T10:09:06;98007.03;;;13.64;61.09
22964;BME280;11648;49.306;6.934;2022-11-20T10:17:23;98010.28;;;13.72;60.51
22964;BME280;11648;49.306;6.934;2022-11-20T10:25:39;97996.50;;;13.33;60.82
22964;BME280;11648;49.306;6.934;2022-11-20T10:28:38;97997.41;;;13.32;61.16
22964;BME280;11648;49.306;6.934;2022-11-20T10:31:28;98001.53;;;13.43;60.97
22964;BME280;11648;49.306;6.934;2022-11-20T10:33:57;98000.78;;;13.38;60.24
22964;BME280;11648;49.306;6.934;2022-11-20T10:36:50;97992.06;;;13.34;60.95
22964;BME280;11648;49.306;6.934;2022-11-20T10:39:33;97998.19;;;13.36;61.00
22964;BME280;11648;49.306;6.934;2022-11-20T10:42:02;97995.69;;;13.31;60.81
22964;BME280;11648;49.306;6.934;2022-11-20T10:44:29;97991.81;;;13.43;60.26
22964;BME280;11648;49.306;6.934;2022-11-20T10:47:21;97994.63;;;13.37;61.18
22964;BME280;11648;49.306;6.934;2022-11-20T10:49:52;97986.66;;;13.39;61.15
22964;BME280;11648;49.306;6.934;2022-11-20T10:58:19;97965.41;;;15.01;57.04
22964;BME280;11648;49.306;6.934;2022-11-20T11:00:49;97962.28;;;15.36;54.62
22964;BME280;11648;49.306;6.934;2022-11-20T11:03:23;97936.59;;;18.01;49.26
22964;BME280;11648;49.306;6.934;2022-11-20T11:06:03;97925.38;;;19.47;44.97
22964;BME280;11648;49.306;6.934;2022-11-20T11:08:37;97922.16;;;19.41;44.05
22964;BME280;11648;49.306;6.934;2022-11-20T11:11:18;97925.72;;;19.08;45.14
22964;BME280;11648;49.306;6.934;2022-11-20T11:13:45;97924.53;;;18.81;45.22
22964;BME280;11648;49.306;6.934;2022-11-20T11:16:23;97921.63;;;18.86;44.76
22964;BME280;11648;49.306;6.934;2022-11-20T11:18:51;97918.28;;;19.31;43.68
22964;BME280;11648;49.306;6.934;2022-11-20T11:21:23;97907.31;;;19.99;42.31
22964;BME280;11648;49.306;6.934;2022-11-20T11:24:02;97898.06;;;20.05;41.92
22964;BME280;11648;49.306;6.934;2022-11-20T11:26:59;97878.59;;;20.62;39.47
22964;BME280;11648;49.306;6.934;2022-11-20T11:29:31;97890.03;;;20.20;40.70
22964;BME280;11648;49.306;6.934;2022-11-20T11:32:11;97895.19;;;19.30;41.00
22964;BME280;11648;49.306;6.934;2022-11-20T11:34:38;97886.47;;;18.26;42.53
22964;BME280;11648;49.306;6.934;2022-11-20T11:37:13;97892.28;;;18.17;42.74
22964;BME280;11648;49.306;6.934;2022-11-20T11:39:41;97885.69;;;18.75;41.20
22964;BME280;11648;49.306;6.934;2022-11-20T11:42:13;97880.50;;;18.72;41.51
22964;BME280;11648;49.306;6.934;2022-11-20T11:44:47;97888.84;;;17.60;42.87
22964;BME280;11648;49.306;6.934;2022-11-20T11:47:37;97898.09;;;16.96;44.65
22964;BME280;11648;49.306;6.934;2022-11-20T11:55:15;97900.88;;;16.12;45.94
22964;BME280;11648;49.306;6.934;2022-11-20T11:57:59;97908.56;;;15.98;46.70
22964;BME280;11648;49.306;6.934;2022-11-20T12:00:27;97905.47;;;15.87;47.49
22964;BME280;11648;49.306;6.934;2022-11-20T12:03:14;97896.19;;;15.76;47.28
22964;BME280;11648;49.306;6.934;2022-11-20T12:05:45;97897.34;;;15.69;47.38
22964;BME280;11648;49.306;6.934;2022-11-20T12:08:37;97904.69;;;15.40;48.36
22964;BME280;11648;49.306;6.934;2022-11-20T12:11:31;97893.34;;;15.36;48.66
22964;BME280;11648;49.306;6.934;2022-11-20T12:14:19;97901.22;;;15.38;49.12
22964;BME280;11648;49.306;6.934;2022-11-20T12:16:51;97900.72;;;15.28;49.08
22964;BME280;11648;49.306;6.934;2022-11-20T12:19:19;97897.44;;;14.98;49.95
22964;BME280;11648;49.306;6.934;2022-11-20T12:22:07;97903.94;;;15.13;49.95
22964;BME280;11648;49.306;6.934;2022-11-20T12:30:33;97890.53;;;14.46;50.21
22964;BME280;11648;49.306;6.934;2022-11-20T12:35:59;97897.44;;;14.75;51.33
22964;BME280;11648;49.306;6.934;2022-11-20T12:38:42;97885.09;;;14.74;51.30
22964;BME280;11648;49.306;6.934;2022-11-20T12:47:46;97862.88;;;14.55;51.93
22964;BME280;11648;49.306;6.934;2022-11-20T13:01:45;97856.88;;;13.99;53.86
22964;BME280;11648;49.306;6.934;2022-11-20T13:07:02;97849.94;;;13.95;53.25
22964;BME280;11648;49.306;6.934;2022-11-20T13:09:32;97843.97;;;14.14;52.98
22964;BME280;11648;49.306;6.934;2022-11-20T13:12:23;97847.56;;;14.38;52.86
22964;BME280;11648;49.306;6.934;2022-11-20T13:17:47;97830.47;;;13.97;52.50
22964;BME280;11648;49.306;6.934;2022-11-20T13:20:18;97821.97;;;14.39;52.18
22964;BME280;11648;49.306;6.934;2022-11-20T13:22:56;97817.06;;;14.02;51.82
22964;BME280;11648;49.306;6.934;2022-11-20T13:25:33;97802.88;;;14.04;52.17
22964;BME280;11648;49.306;6.934;2022-11-20T13:28:03;97808.97;;;13.81;52.56
22964;BME280;11648;49.306;6.934;2022-11-20T13:30:31;97793.63;;;13.91;52.61
22964;BME280;11648;49.306;6.934;2022-11-20T13:33:35;97785.78;;;14.13;51.93
22964;BME280;11648;49.306;6.934;2022-11-20T13:36:05;97778.38;;;13.98;51.81
22964;BME280;11648;49.306;6.934;2022-11-20T13:38:48;97791.44;;;14.04;52.55
22964;BME280;11648;49.306;6.934;2022-11-20T13:41:28;97772.56;;;14.13;52.03
22964;BME280;11648;49.306;6.934;2022-11-20T13:44:47;97773.75;;;14.29;52.03
22964;BME280;11648;49.306;6.934;2022-11-20T13:46:46;97773.31;;;14.41;51.89
22964;BME280;11648;49.306;6.934;2022-11-20T13:49:21;97772.81;;;14.30;51.33
22964;BME280;11648;49.306;6.934;2022-11-20T13:51:54;97763.34;;;14.00;52.21
22964;BME280;11648;49.306;6.934;2022-11-20T13:54:48;97761.81;;;14.17;51.54
22964;BME280;11648;49.306;6.934;2022-11-20T14:00:02;97763.81;;;13.61;52.34
22964;BME280;11648;49.306;6.934;2022-11-20T14:02:36;97771.09;;;13.79;52.58
22964;BME280;11648;49.306;6.934;2022-11-20T14:05:04;97762.84;;;13.64;52.74
22964;BME280;11648;49.306;6.934;2022-11-20T14:07:41;97761.25;;;13.58;52.72
22964;BME280;11648;49.306;6.934;2022-11-20T14:12:46;97760.28;;;13.36;52.83
22964;BME280;11648;49.306;6.934;2022-11-20T14:15:29;97762.53;;;13.20;53.42
22964;BME280;11648;49.306;6.934;2022-11-20T14:17:57;97758.66;;;13.32;53.70
22964;BME280;11648;49.306;6.934;2022-11-20T14:20:27;97760.63;;;13.25;53.73
22964;BME280;11648;49.306;6.934;2022-11-20T14:22:55;97760.63;;;13.25;53.29
22964;BME280;11648;49.306;6.934;2022-11-20T14:25:24;97763.31;;;13.24;53.12
22964;BME280;11648;49.306;6.934;2022-11-20T14:27:56;97750.75;;;13.30;53.17
22964;BME280;11648;49.306;6.934;2022-11-20T14:30:29;97758.47;;;13.10;54.14
22964;BME280;11648;49.306;6.934;2022-11-20T14:33:03;97757.91;;;13.27;54.05
22964;BME280;11648;49.306;6.934;2022-11-20T14:35:34;97746.81;;;13.16;53.39
22964;BME280;11648;49.306;6.934;2022-11-20T14:38:03;97740.31;;;13.26;53.24